San Diego, CA (92101)

12:32 AM PDT on September 03, 2014 (GMT -0700)
Embarcadero North | Change Station
CLOSE
Current Station
Personal Weather Station
Location: San Diego, CA
Elevation: 10 ft
Nearby Weather Stations

Elev 10 ft 32.72 °N, 117.17 °W | Updated 13 seconds ago

Overcast
Overcast
70.6 °F
Feels Like 72 °F
N
1.6
Wind Variable Wind from NNE
Gusts 1.8 mph

Today
High -- | Low -- °F
--% Chance of Precip.
Yesterday
High -- | Low -- °F
Precip. -- in
6:24 AM 7:10 PM
First Quarter, 59% visible
Pressure 29.83 in
Visibility 10.0 miles
Clouds Overcast 1700 ft
Heat Index 72 °F
Dew Point 63 °F
Humidity 78%
Rainfall 0.00 in
Snow Depth Not available.
UV 0 out of 12
Pollen 7.80 out of 12
Ozone Good
PM2.5 Good
Flu Activity Not available.
METAR KSAN 030651Z 18004KT 10SM OVC017 22/17 A2983 RMK AO2 SLP102 T02220172

More Conditions Fewer Conditions

Pressure 29.83 in
Visibility 10.0 miles
Clouds Overcast 1700 ft
Heat Index 72 °F
Dew Point 63 °F
Humidity 78%
Rainfall 0.00 in
Snow Depth Not available.
UV 0 out of 12
Pollen 7.80 out of 12
Ozone Good
PM2.5 Good
Flu Activity Not available.
METAR KSAN 030651Z 18004KT 10SM OVC017 22/17 A2983 RMK AO2 SLP102 T02220172

More Conditions Fewer Conditions

10-Day Weather Forecast

Almanac

Astronomy

Sep. 03, 2014 Rise Set
Actual Time 6:24 AM PDT 7:10 PM PDT
Civil Twilight 5:59 AM PDT 7:35 PM PDT
Nautical Twilight 5:30 AM PDT 8:05 PM PDT
Astronomical Twilight 4:59 AM PDT 8:35 PM PDT
Moon 2:46 PM PDT 12:32 AM PDT
Length of Visible Light 13h 35m
Length of Day
12h 45m
Tomorrow will be 1m 56s shorter.
First Quarter, 59% of the Moon is Illuminated
Today
First Quarter
Sep 8
Full
Sep 15
Last Quarter
Sep 24
New
Oct 1
First Quarter

Today's Extremes

State Highs State Lows

Community

WunderPhotos

Upload Photos

1,749,891 photos uploaded!

Nearby

Air Quality

  Air Quality AQ Index Pollutant
Yesterday Good
PM2.5
Yesterday Good
OZONE
Current Good
PM2.5
Current Good
OZONE
Tuesday Good
PM2.5
Wednesday Good
PM2.5
Wednesday Good
OZONE

Snow Depth

Station Depth Elevation
Leavitt Lake 0 in 9400 ft
Leavitt Meadows 1 in 7200 ft
Summit Meadow 1 in 9122 ft
Monitor Pass 0 in 8350 ft
Blue Lakes 0 in 8000 ft

Earthquake Activity

City Distance Mag. Time & Date
San Jacinto, California 75 miles 2.9 8:30 PM PDT
2014-09-02
San Jacinto, California 75 miles 3.7 7:38 PM PDT
2014-09-02
Holtville, California 101 miles 2.5 5:43 PM PDT
2014-09-01
Holtville, California 102 miles 2.5 5:26 PM PDT
2014-09-01
Minimum magnitude displayed is 2.5.

Coastal Water Temperatures

Place Temperature
La Jolla, CA 73.0 °F
San Diego, CA 75.9 °F

Nearby Weather Stations